createdAt,value
2023-03-14T00:01:35.742Z,1.98
2023-03-14T00:06:38.129Z,1.27
2023-03-14T00:11:38.795Z,1.33
2023-03-14T00:16:39.620Z,1.52
2023-03-14T00:21:41.642Z,1.55
2023-03-14T00:26:42.321Z,1.50
2023-03-14T00:31:43.089Z,1.40
2023-03-14T00:36:46.973Z,1.67
2023-03-14T00:41:48.462Z,1.80
2023-03-14T00:46:49.353Z,2.20
2023-03-14T00:51:52.443Z,2.40
2023-03-14T00:56:53.106Z,2.53
2023-03-14T01:01:53.875Z,2.50
2023-03-14T01:06:55.921Z,2.25
2023-03-14T01:11:56.557Z,3.00
2023-03-14T01:17:01.609Z,3.03
2023-03-14T01:22:03.981Z,2.83
2023-03-14T01:27:04.783Z,3.53
2023-03-14T01:32:06.189Z,3.55
2023-03-14T01:37:09.117Z,3.40
2023-03-14T01:42:11.826Z,3.35
2023-03-14T01:47:14.060Z,3.58
2023-03-14T01:52:21.830Z,3.17
2023-03-14T01:57:25.746Z,3.17
2023-03-14T02:02:28.203Z,3.53
2023-03-14T02:07:37.535Z,3.00
2023-03-14T02:12:54.391Z,3.42
2023-03-14T02:18:14.732Z,2.92
2023-03-14T02:23:33.972Z,3.25
2023-03-14T02:28:36.423Z,3.60
2023-03-14T02:33:40.232Z,3.28
2023-03-14T02:38:47.844Z,3.60
2023-03-14T02:43:50.000Z,3.22
2023-03-14T02:48:55.546Z,3.75
2023-03-14T02:53:56.894Z,3.90
2023-03-14T02:59:00.858Z,3.67
2023-03-14T03:04:09.206Z,1.70
2023-03-14T03:09:10.034Z,0.98
2023-03-14T03:14:12.090Z,0.70
2023-03-14T03:19:14.582Z,0.50
2023-03-14T03:24:15.469Z,0.40
2023-03-14T03:29:17.608Z,0.40
2023-03-14T03:34:19.953Z,0.47
2023-03-14T03:39:24.140Z,0.60
2023-03-14T03:44:26.272Z,0.68
2023-03-14T03:49:30.877Z,0.45
2023-03-14T03:54:31.616Z,0.50
2023-03-14T03:59:34.920Z,0.45
2023-03-14T04:04:36.023Z,0.50
2023-03-14T04:09:39.858Z,0.90
2023-03-14T04:14:47.347Z,0.52
2023-03-14T04:19:55.299Z,0.50
2023-03-14T04:25:04.507Z,0.50
2023-03-14T04:30:11.684Z,0.60
2023-03-14T04:35:26.408Z,0.43
2023-03-14T04:40:34.435Z,0.47
2023-03-14T04:45:43.461Z,0.40
2023-03-14T04:50:44.942Z,0.50
2023-03-14T04:55:50.583Z,0.70
2023-03-14T05:00:53.342Z,0.40
2023-03-14T05:06:20.028Z,0.40
2023-03-14T05:11:37.490Z,0.50
2023-03-14T05:16:59.537Z,0.57
2023-03-14T05:22:16.807Z,0.47
2023-03-14T05:27:36.308Z,0.68
2023-03-14T05:32:57.105Z,0.60
2023-03-14T05:38:26.215Z,0.50
2023-03-14T05:43:44.432Z,0.90
2023-03-14T05:49:05.124Z,0.90
2023-03-14T05:54:27.377Z,0.70
2023-03-14T05:59:38.114Z,0.90
2023-03-14T06:04:50.959Z,0.73
2023-03-14T06:09:52.712Z,0.60
2023-03-14T06:14:53.891Z,0.82
2023-03-14T06:19:56.058Z,1.00
2023-03-14T06:24:57.731Z,0.98
2023-03-14T06:30:00.454Z,0.82
2023-03-14T06:35:06.445Z,1.23
2023-03-14T06:40:13.759Z,1.20
2023-03-14T06:45:24.859Z,0.80
2023-03-14T06:50:28.252Z,0.80
2023-03-14T06:55:34.516Z,0.60
2023-03-14T07:00:35.797Z,1.45
2023-03-14T07:05:39.913Z,1.10
2023-03-14T07:10:41.110Z,0.90
2023-03-14T07:15:42.827Z,1.48
2023-03-14T07:20:47.038Z,0.70
2023-03-14T07:25:51.800Z,1.35
2023-03-14T07:30:55.005Z,1.00
2023-03-14T07:36:02.584Z,0.88
2023-03-14T07:41:05.634Z,1.00
2023-03-14T07:46:09.803Z,1.70
2023-03-14T07:51:11.857Z,1.52
2023-03-14T07:56:12.652Z,1.40
2023-03-14T08:01:13.458Z,1.05
2023-03-14T08:06:15.621Z,1.40
2023-03-14T08:11:16.649Z,1.30
2023-03-14T08:16:18.124Z,1.20
2023-03-14T08:21:20.260Z,0.70
2023-03-14T08:26:21.028Z,0.60
2023-03-14T08:31:24.201Z,1.10
2023-03-14T08:36:26.451Z,1.10
2023-03-14T08:41:27.134Z,0.70
2023-03-14T08:46:27.972Z,0.68
2023-03-14T08:51:30.076Z,0.60
2023-03-14T08:56:30.746Z,0.75
2023-03-14T09:01:31.519Z,0.70
2023-03-14T09:06:33.584Z,0.60
2023-03-14T09:11:34.528Z,0.65
2023-03-14T09:16:38.290Z,1.30
2023-03-14T09:21:40.385Z,1.13
2023-03-14T09:26:41.115Z,0.60
2023-03-14T09:31:41.855Z,0.70
2023-03-14T09:36:45.313Z,1.17
2023-03-14T09:41:49.669Z,1.08
2023-03-14T09:46:54.651Z,0.70
2023-03-14T09:51:59.225Z,0.80
2023-03-14T09:57:00.411Z,0.93
2023-03-14T10:02:03.779Z,0.68
2023-03-14T10:07:05.827Z,0.70
2023-03-14T10:12:09.450Z,0.50
2023-03-14T10:17:12.430Z,0.52
2023-03-14T10:22:17.071Z,0.43
2023-03-14T10:27:21.338Z,0.60
2023-03-14T10:32:23.229Z,0.57
2023-03-14T10:37:28.573Z,0.80
2023-03-14T10:42:32.732Z,0.45
2023-03-14T10:47:34.589Z,0.50
2023-03-14T10:52:51.308Z,0.28
2023-03-14T10:57:57.467Z,0.43
2023-03-14T11:03:08.595Z,0.40
2023-03-14T11:08:16.962Z,0.55
2023-03-14T11:13:22.174Z,0.73
2023-03-14T11:18:55.556Z,0.60
2023-03-14T11:24:14.461Z,0.50
2023-03-14T11:29:24.446Z,0.40
2023-03-14T11:34:30.168Z,0.50
2023-03-14T11:39:40.814Z,0.52
2023-03-14T11:44:42.887Z,0.50
2023-03-14T11:49:48.462Z,1.25
2023-03-14T11:54:55.630Z,0.50
2023-03-14T12:00:05.326Z,0.60
2023-03-14T12:05:40.083Z,0.47
2023-03-14T12:10:48.378Z,0.70
2023-03-14T12:15:53.081Z,0.40
2023-03-14T12:20:56.519Z,0.43
2023-03-14T12:26:16.986Z,1.00
2023-03-14T12:31:40.857Z,0.70
2023-03-14T12:37:06.553Z,0.60
2023-03-14T12:42:45.018Z,0.50
2023-03-14T12:48:05.547Z,0.60
2023-03-14T12:53:49.491Z,0.52
2023-03-14T12:59:04.622Z,0.40
2023-03-14T13:04:10.653Z,0.35
2023-03-14T13:10:00.440Z,0.20
2023-03-14T13:15:03.799Z,0.50
2023-03-14T13:20:14.701Z,0.30
2023-03-14T13:25:17.841Z,0.40
2023-03-14T13:30:25.975Z,0.20
2023-03-14T13:35:29.313Z,0.30
2023-03-14T13:40:33.484Z,0.20
2023-03-14T13:45:46.631Z,0.22
2023-03-14T13:50:56.134Z,0.20
2023-03-14T13:55:57.010Z,0.45
2023-03-14T14:01:06.090Z,0.70
2023-03-14T14:06:12.945Z,0.30
2023-03-14T14:11:23.346Z,0.50
2023-03-14T14:16:31.836Z,0.30
2023-03-14T14:21:33.735Z,0.22
2023-03-14T14:26:35.545Z,0.45
2023-03-14T14:31:37.745Z,0.40
2023-03-14T14:36:41.247Z,0.40
2023-03-14T14:41:44.389Z,0.30
2023-03-14T14:46:53.052Z,0.15
2023-03-14T14:52:05.732Z,0.47
2023-03-14T14:57:08.308Z,0.30
2023-03-14T15:02:32.774Z,0.30
2023-03-14T15:07:33.644Z,0.32
2023-03-14T15:12:34.373Z,0.30
2023-03-14T15:17:37.000Z,0.30
2023-03-14T15:22:37.714Z,0.35
2023-03-14T15:27:43.487Z,0.40
2023-03-14T15:32:45.865Z,0.25
2023-03-14T15:37:46.711Z,0.40
2023-03-14T15:42:47.389Z,0.32
2023-03-14T15:47:49.552Z,0.50
2023-03-14T15:52:51.078Z,0.43
2023-03-14T15:57:51.809Z,0.50
2023-03-14T16:02:53.998Z,0.77
2023-03-14T16:07:54.636Z,0.35
2023-03-14T16:12:55.277Z,0.50
2023-03-14T16:17:57.963Z,0.40
2023-03-14T16:22:58.736Z,0.30
2023-03-14T16:28:10.449Z,0.32
2023-03-14T16:33:13.373Z,0.30
2023-03-14T16:38:14.101Z,0.40
2023-03-14T16:43:16.220Z,0.60
2023-03-14T16:48:18.480Z,0.50
2023-03-14T16:53:20.093Z,0.65
2023-03-14T16:58:21.773Z,0.57
2023-03-14T17:03:23.777Z,0.20
2023-03-14T17:08:24.865Z,0.68
2023-03-14T17:13:27.584Z,0.47
2023-03-14T17:18:32.096Z,0.40
2023-03-14T17:23:34.737Z,0.40
2023-03-14T17:28:36.324Z,0.60
2023-03-14T17:33:38.485Z,0.45
2023-03-14T17:38:39.590Z,0.50
2023-03-14T17:43:42.571Z,0.30
2023-03-14T17:48:46.321Z,0.63
2023-03-14T17:53:47.060Z,0.80
2023-03-14T17:58:47.774Z,0.57
2023-03-14T18:03:49.908Z,0.80
2023-03-14T18:08:51.466Z,0.95
2023-03-14T18:13:52.441Z,1.95
2023-03-14T18:18:54.890Z,1.50
2023-03-14T18:23:55.581Z,1.15
2023-03-14T18:28:56.264Z,1.40
2023-03-14T18:33:58.324Z,1.42
2023-03-14T18:38:59.122Z,1.27
2023-03-14T18:43:59.809Z,1.67
2023-03-14T18:49:04.383Z,1.60
2023-03-14T18:54:10.603Z,1.13
2023-03-14T18:59:12.259Z,1.15
2023-03-14T19:04:14.359Z,1.17
2023-03-14T19:09:16.612Z,1.52
2023-03-14T19:14:20.248Z,1.38
2023-03-14T19:19:22.469Z,1.13
2023-03-14T19:24:23.917Z,1.30
2023-03-14T19:29:24.608Z,0.80
2023-03-14T19:34:26.646Z,1.60
2023-03-14T19:39:27.339Z,1.60
2023-03-14T19:44:28.269Z,1.60
2023-03-14T19:49:32.017Z,1.67
2023-03-14T19:54:32.701Z,1.52
2023-03-14T19:59:33.454Z,1.42
2023-03-14T20:04:36.072Z,1.63
2023-03-14T20:09:36.762Z,1.75
2023-03-14T20:14:37.476Z,2.00
2023-03-14T20:19:39.568Z,2.42
2023-03-14T20:24:40.560Z,2.05
2023-03-14T20:29:41.293Z,1.80
2023-03-14T20:34:43.384Z,1.98
2023-03-14T20:39:44.475Z,1.80
2023-03-14T20:44:45.444Z,1.95
2023-03-14T20:49:47.502Z,1.70
2023-03-14T20:54:48.256Z,1.77
2023-03-14T20:59:48.935Z,2.30
2023-03-14T21:04:53.110Z,2.22
2023-03-14T21:09:53.956Z,2.65
2023-03-14T21:14:54.737Z,2.00
2023-03-14T21:19:58.407Z,2.00
2023-03-14T21:24:59.261Z,1.50
2023-03-14T21:30:00.131Z,1.63
2023-03-14T21:35:02.149Z,1.90
2023-03-14T21:40:03.910Z,1.92
2023-03-14T21:45:05.317Z,1.83
2023-03-14T21:50:08.574Z,2.33
2023-03-14T21:55:11.602Z,2.33
2023-03-14T22:00:14.469Z,1.75
2023-03-14T22:05:17.996Z,1.67
2023-03-14T22:10:18.925Z,2.58
2023-03-14T22:15:19.594Z,2.22
2023-03-14T22:20:21.809Z,1.65
2023-03-14T22:25:22.501Z,1.85
2023-03-14T22:30:23.216Z,1.35
2023-03-14T22:35:25.330Z,1.95
2023-03-14T22:40:26.037Z,2.00
2023-03-14T22:45:27.055Z,1.60
2023-03-14T22:50:29.096Z,1.80
2023-03-14T22:55:29.797Z,1.70
2023-03-14T23:00:31.838Z,1.63
2023-03-14T23:05:34.623Z,2.20
2023-03-14T23:10:35.466Z,1.55
2023-03-14T23:15:36.113Z,1.48
2023-03-14T23:20:38.223Z,1.65
2023-03-14T23:25:50.626Z,1.88
2023-03-14T23:30:57.278Z,1.90
2023-03-14T23:35:59.450Z,2.03
2023-03-14T23:41:01.806Z,1.95
2023-03-14T23:46:02.619Z,2.22
2023-03-14T23:51:07.172Z,2.38
2023-03-14T23:56:08.720Z,2.42
